Time;durP1;ratioP1;P1;durP2;ratioP2;P2;SDS_P1;SDS_P2;PMS_P1;PMS_P2;Temp;Humidity;BMP_temperature;BMP_pressure;BME280_temperature;BME280_humidity;BME280_pressure;Samples;Min_cycle;Max_cycle;Signal;HPM_P1;HPM_P2
2023/08/27 00:00:00;;;;;;;4.72;4.32;;;21.10;80.00;;;;;;4196790;28;20076;-41
2023/08/27 00:02:42;;;;;;;4.13;3.72;;;21.10;80.00;;;;;;4206070;28;20051;-44
2023/08/27 00:05:24;;;;;;;4.85;4.35;;;21.10;79.80;;;;;;4206326;28;20047;-41
2023/08/27 00:08:05;;;;;;;4.13;3.83;;;21.00;79.80;;;;;;4206004;28;20519;-41
2023/08/27 00:10:46;;;;;;;4.60;4.22;;;21.10;79.90;;;;;;4206131;28;20161;-41
2023/08/27 00:13:28;;;;;;;3.83;3.53;;;21.10;80.20;;;;;;4205564;28;20120;-41
2023/08/27 00:16:09;;;;;;;4.05;3.72;;;21.00;80.00;;;;;;4205243;28;20066;-42
2023/08/27 00:18:49;;;;;;;;;;;21.10;80.00;;;;;;4206860;28;20212;-41
2023/08/27 00:21:32;;;;;;;4.15;3.95;;;21.10;80.10;;;;;;4206081;28;20326;-40
2023/08/27 00:24:13;;;;;;;3.78;3.53;;;21.00;80.50;;;;;;4204032;28;20055;-42
2023/08/27 00:26:54;;;;;;;4.25;3.85;;;21.00;80.40;;;;;;4188476;28;20522;-42
2023/08/27 00:29:35;;;;;;;4.38;4.13;;;21.00;80.10;;;;;;4197406;28;20067;-42
2023/08/27 00:32:15;;;;;;;3.88;3.65;;;21.00;80.10;;;;;;4188573;28;20109;-42
2023/08/27 00:35:06;;;;;;;4.18;3.55;;;21.00;80.30;;;;;;4189260;28;20051;-41
2023/08/27 00:37:48;;;;;;;3.83;3.53;;;20.90;80.20;;;;;;4205063;28;20551;-41
2023/08/27 00:40:29;;;;;;;4.55;4.10;;;21.00;80.10;;;;;;4205608;28;20090;-41
2023/08/27 00:43:10;;;;;;;3.78;3.58;;;21.00;80.00;;;;;;4203800;28;20124;-42
2023/08/27 00:45:51;;;;;;;5.03;4.05;;;21.00;80.00;;;;;;4203448;28;20059;-45
2023/08/27 00:48:33;;;;;;;3.70;3.53;;;21.00;79.90;;;;;;4192783;28;20514;-43
2023/08/27 00:51:14;;;;;;;4.60;4.10;;;21.00;79.90;;;;;;4205316;28;20051;-41
2023/08/27 00:53:58;;;;;;;6.60;4.35;;;21.00;79.80;;;;;;4205453;28;20055;-43
2023/08/27 00:56:43;;;;;;;4.53;4.15;;;21.00;79.80;;;;;;4205074;28;20055;-45
2023/08/27 00:59:24;;;;;;;5.25;4.28;;;20.90;79.80;;;;;;4203770;28;20062;-49
2023/08/27 01:02:05;;;;;;;4.63;4.20;;;20.90;79.70;;;;;;4203614;28;20055;-50
2023/08/27 01:04:46;;;;;;;4.72;3.72;;;20.90;79.60;;;;;;4197739;28;20902;-46
2023/08/27 01:07:32;;;;;;;4.13;3.92;;;20.90;79.40;;;;;;4204354;28;20051;-45
2023/08/27 01:10:24;;;;;;;4.00;3.70;;;20.90;79.30;;;;;;4205172;28;20617;-46
2023/08/27 01:13:08;;;;;;;5.43;3.88;;;20.90;79.00;;;;;;4187605;28;20057;-48
2023/08/27 01:15:58;;;;;;;4.90;4.13;;;20.90;79.30;;;;;;4187549;28;20055;-48
2023/08/27 01:18:40;;;;;;;4.35;4.05;;;20.90;79.00;;;;;;4182633;28;20731;-46
2023/08/27 01:21:23;;;;;;;4.97;4.57;;;20.90;79.30;;;;;;4187067;28;20051;-47
2023/08/27 01:24:04;;;;;;;4.75;4.40;;;20.90;79.20;;;;;;4187477;28;20056;-48
2023/08/27 01:26:48;;;;;;;4.32;4.03;;;20.90;79.30;;;;;;4187041;28;20765;-47
2023/08/27 01:29:34;;;;;;;4.20;3.83;;;20.90;79.20;;;;;;4191240;28;20489;-47
2023/08/27 01:32:22;;;;;;;4.70;4.30;;;20.90;79.10;;;;;;4203101;28;20055;-48
2023/08/27 01:35:04;;;;;;;4.47;4.10;;;20.90;79.30;;;;;;4204933;28;20055;-49
2023/08/27 01:37:47;;;;;;;4.55;4.22;;;20.90;79.60;;;;;;4203255;28;20061;-48
2023/08/27 01:40:28;;;;;;;4.68;4.28;;;20.80;79.60;;;;;;4204834;28;20059;-49
2023/08/27 01:43:09;;;;;;;4.10;3.80;;;20.80;79.40;;;;;;4204359;28;20059;-51
2023/08/27 01:45:51;;;;;;;4.50;4.20;;;20.80;79.40;;;;;;4188300;28;20518;-50
2023/08/27 01:48:33;;;;;;;4.32;4.03;;;20.80;80.30;;;;;;4187694;28;20059;-49
2023/08/27 01:51:14;;;;;;;4.38;4.07;;;20.80;79.40;;;;;;4203673;28;20059;-47
2023/08/27 01:53:57;;;;;;;4.70;4.30;;;20.80;79.60;;;;;;4203623;28;20079;-46
2023/08/27 01:56:38;;;;;;;4.20;3.90;;;20.80;79.70;;;;;;4203794;28;20058;-45
2023/08/27 01:59:18;;;;;;;5.72;4.55;;;20.80;79.80;;;;;;4186478;28;20454;-45
2023/08/27 02:01:59;;;;;;;4.70;4.38;;;20.80;80.80;;;;;;4186776;28;20059;-45
2023/08/27 02:04:40;;;;;;;6.72;4.97;;;20.80;80.20;;;;;;4187124;28;20495;-46
2023/08/27 02:07:21;;;;;;;5.63;4.97;;;20.80;80.20;;;;;;4187626;28;20051;-47
2023/08/27 02:10:04;;;;;;;3.92;3.70;;;20.80;80.00;;;;;;4204039;28;20078;-46
2023/08/27 02:12:45;;;;;;;4.65;4.32;;;20.70;80.00;;;;;;4184318;28;20101;-44
2023/08/27 02:15:26;;;;;;;4.47;4.28;;;20.70;79.90;;;;;;4203022;28;20039;-45
2023/08/27 02:18:07;;;;;;;4.70;4.38;;;20.70;79.90;;;;;;4203445;28;20058;-44
2023/08/27 02:20:48;;;;;;;4.80;4.47;;;20.70;80.00;;;;;;4203077;28;20217;-41
2023/08/27 02:23:29;;;;;;;4.60;4.30;;;20.70;80.10;;;;;;4202765;28;20063;-42
2023/08/27 02:26:11;;;;;;;5.68;5.15;;;20.70;80.20;;;;;;4186306;28;20101;-43
2023/08/27 02:28:54;;;;;;;4.40;4.18;;;20.70;80.30;;;;;;4187733;28;20055;-41
2023/08/27 02:31:36;;;;;;;4.63;4.32;;;20.70;80.30;;;;;;4199324;28;20055;-45
2023/08/27 02:34:17;;;;;;;4.88;4.40;;;20.70;80.20;;;;;;4204109;28;20067;-42
2023/08/27 02:36:58;;;;;;;5.82;4.35;;;20.70;80.10;;;;;;4203168;28;20059;-42
2023/08/27 02:39:39;;;;;;;7.83;4.23;;;20.70;80.10;;;;;;4204376;28;20051;-40
2023/08/27 02:42:21;;;;;;;4.65;4.35;;;20.70;80.10;;;;;;4203381;28;20304;-45
2023/08/27 02:45:03;;;;;;;4.65;4.22;;;20.70;80.20;;;;;;4202837;28;20059;-43
2023/08/27 02:47:44;;;;;;;6.82;4.80;;;20.70;80.10;;;;;;4204424;28;20058;-46
2023/08/27 02:50:24;;;;;;;6.47;5.07;;;20.70;81.00;;;;;;4205590;28;20069;-42
2023/08/27 02:53:05;;;;;;;7.07;4.20;;;20.70;80.00;;;;;;4189526;28;20056;-44
2023/08/27 02:55:46;;;;;;;4.72;4.32;;;20.70;80.10;;;;;;4195245;28;20174;-41
2023/08/27 02:58:28;;;;;;;5.45;4.57;;;20.70;80.00;;;;;;4206808;28;20505;-41
2023/08/27 03:01:10;;;;;;;5.22;4.78;;;20.60;80.10;;;;;;4205611;28;20055;-42
2023/08/27 03:03:51;;;;;;;5.88;4.35;;;20.60;80.00;;;;;;4206220;28;20079;-46
2023/08/27 03:06:33;;;;;;;5.03;4.63;;;20.60;80.00;;;;;;4202784;28;20096;-42
2023/08/27 03:09:15;;;;;;;5.43;4.93;;;20.60;79.90;;;;;;4206254;28;20071;-45
2023/08/27 03:11:55;;;;;;;4.75;4.43;;;20.60;79.90;;;;;;4206883;28;20063;-42
2023/08/27 03:14:38;;;;;;;5.68;4.28;;;20.60;79.90;;;;;;4205499;28;20196;-42
2023/08/27 03:17:19;;;;;;;5.20;4.80;;;20.60;79.90;;;;;;4205764;28;20046;-42
2023/08/27 03:20:00;;;;;;;6.78;4.72;;;20.60;79.90;;;;;;4205831;28;20417;-42
2023/08/27 03:22:41;;;;;;;;;;;20.60;79.90;;;;;;4201473;28;20193;-41
2023/08/27 03:25:22;;;;;;;5.15;4.65;;;20.60;80.10;;;;;;4205676;28;19927;-42
2023/08/27 03:28:04;;;;;;;5.38;4.90;;;20.60;80.60;;;;;;4206704;28;20524;-41
2023/08/27 03:30:48;;;;;;;5.45;4.93;;;20.60;80.40;;;;;;4205329;28;20120;-42
2023/08/27 03:33:31;;;;;;;4.90;4.60;;;20.50;80.20;;;;;;4205314;28;20048;-43
2023/08/27 03:36:14;;;;;;;8.60;5.47;;;20.50;80.00;;;;;;4217601;28;20055;-45
2023/08/27 03:38:55;;;;;;;5.88;4.88;;;20.60;80.00;;;;;;4177510;28;20056;-41
2023/08/27 03:41:36;;;;;;;5.45;4.95;;;20.50;80.00;;;;;;4194174;28;20403;-44
2023/08/27 03:44:17;;;;;;;5.90;5.40;;;20.50;80.00;;;;;;4206367;28;20059;-43
2023/08/27 03:46:59;;;;;;;10.52;5.00;;;20.50;80.10;;;;;;4205016;28;20078;-42
2023/08/27 03:49:40;;;;;;;5.20;4.80;;;20.50;80.10;;;;;;4206710;28;20521;-41
2023/08/27 03:52:21;;;;;;;5.43;4.93;;;20.50;80.10;;;;;;4205427;28;20461;-41
2023/08/27 03:55:02;;;;;;;5.63;5.00;;;20.50;80.10;;;;;;4188575;28;20044;-42
2023/08/27 03:57:43;;;;;;;6.18;5.63;;;20.50;80.10;;;;;;4189710;28;20095;-42
2023/08/27 04:00:24;;;;;;;5.50;5.10;;;20.50;80.00;;;;;;4189016;28;20411;-43
2023/08/27 04:03:07;;;;;;;7.25;4.65;;;20.50;80.00;;;;;;4189868;28;20051;-41
2023/08/27 04:05:49;;;;;;;5.22;4.78;;;20.50;80.00;;;;;;4189497;28;20151;-42
2023/08/27 04:08:30;;;;;;;5.30;4.57;;;20.50;80.10;;;;;;4188593;28;20113;-41
2023/08/27 04:11:12;;;;;;;6.28;4.68;;;20.50;80.90;;;;;;4188714;28;20071;-44
2023/08/27 04:13:53;;;;;;;5.45;4.97;;;20.50;80.80;;;;;;4188486;28;20158;-41
2023/08/27 04:16:34;;;;;;;5.70;4.85;;;20.50;80.00;;;;;;4188721;28;20060;-43
2023/08/27 04:19:17;;;;;;;5.10;4.70;;;20.50;80.00;;;;;;4189429;28;20105;-41
2023/08/27 04:21:58;;;;;;;5.50;5.10;;;20.40;80.00;;;;;;4205972;28;20055;-41
2023/08/27 04:24:39;;;;;;;4.95;4.65;;;20.40;80.20;;;;;;4206047;28;20059;-44
2023/08/27 04:27:21;;;;;;;5.53;5.03;;;20.40;80.30;;;;;;4202835;28;20105;-41
2023/08/27 04:30:02;;;;;;;5.63;5.22;;;20.40;80.50;;;;;;4215881;28;20051;-44
2023/08/27 04:32:43;;;;;;;5.35;4.93;;;20.40;80.80;;;;;;4205518;28;20092;-45
2023/08/27 04:35:25;;;;;;;;;;;20.40;80.70;;;;;;4216513;28;20105;-42
2023/08/27 04:38:07;;;;;;;7.25;5.22;;;20.40;80.60;;;;;;4204571;28;19926;-48
2023/08/27 04:40:51;;;;;;;5.32;4.82;;;20.40;80.70;;;;;;4205693;28;20136;-46
2023/08/27 04:43:33;;;;;;;5.35;4.93;;;20.40;80.40;;;;;;4187305;28;20071;-45
2023/08/27 04:46:13;;;;;;;5.30;4.80;;;20.40;80.20;;;;;;4188263;28;20056;-46
2023/08/27 04:48:55;;;;;;;5.03;4.63;;;20.30;80.00;;;;;;4187184;28;20059;-42
2023/08/27 04:51:37;;;;;;;5.55;5.13;;;20.40;80.10;;;;;;4188975;28;20055;-42
2023/08/27 04:54:18;;;;;;;5.78;4.63;;;20.30;80.10;;;;;;4187591;28;20142;-45
2023/08/27 04:56:59;;;;;;;5.10;4.57;;;20.30;80.10;;;;;;4191017;28;20056;-47
2023/08/27 04:59:40;;;;;;;5.15;4.75;;;20.30;80.20;;;;;;4204516;28;20058;-44
2023/08/27 05:02:21;;;;;;;5.35;4.95;;;20.30;80.10;;;;;;4205502;28;20182;-45
2023/08/27 05:05:02;;;;;;;4.93;4.53;;;20.30;80.10;;;;;;4204261;28;20189;-46
2023/08/27 05:07:45;;;;;;;7.07;5.07;;;20.30;80.20;;;;;;4198879;28;20114;-42
2023/08/27 05:10:26;;;;;;;5.20;4.80;;;20.30;80.10;;;;;;4175419;28;20071;-44
2023/08/27 05:13:07;;;;;;;5.00;4.70;;;20.30;80.10;;;;;;4188418;28;20593;-44
2023/08/27 05:15:48;;;;;;;8.55;5.05;;;20.30;80.20;;;;;;4202486;28;20414;-42
2023/08/27 05:18:29;;;;;;;4.25;3.95;;;20.30;80.10;;;;;;4204017;28;20054;-43
2023/08/27 05:21:09;;;;;;;4.85;4.47;;;20.30;80.20;;;;;;4205129;28;20101;-42
2023/08/27 05:23:52;;;;;;;5.05;4.63;;;20.30;80.50;;;;;;4204657;28;20225;-41
2023/08/27 05:26:34;;;;;;;4.55;4.20;;;20.40;80.60;;;;;;4204341;28;20609;-42
2023/08/27 05:29:16;;;;;;;4.60;4.30;;;20.40;80.40;;;;;;4203696;28;20197;-43
2023/08/27 05:31:57;;;;;;;4.72;4.32;;;20.40;80.10;;;;;;4194002;28;20054;-45
2023/08/27 05:34:38;;;;;;;4.75;4.38;;;20.40;80.20;;;;;;4203305;28;20401;-51
2023/08/27 05:37:20;;;;;;;5.13;4.63;;;20.30;80.20;;;;;;4203688;28;20051;-50
2023/08/27 05:40:05;;;;;;;4.25;3.95;;;20.30;80.20;;;;;;4203398;28;20047;-47
2023/08/27 05:42:46;;;;;;;4.80;4.40;;;20.30;80.10;;;;;;4191446;28;20055;-49
2023/08/27 05:45:27;;;;;;;;;;;20.30;80.00;;;;;;4202493;28;20051;-65
2023/08/27 05:48:08;;;;;;;4.75;4.35;;;20.30;80.20;;;;;;4187425;28;19931;-50
2023/08/27 05:50:50;;;;;;;4.35;4.05;;;20.30;80.60;;;;;;4197562;28;20129;-45
2023/08/27 05:53:31;;;;;;;4.68;4.38;;;20.30;80.50;;;;;;4187461;28;20098;-47
2023/08/27 05:56:13;;;;;;;4.50;4.20;;;20.30;80.30;;;;;;4201534;28;20062;-49
2023/08/27 05:58:54;;;;;;;4.70;4.30;;;20.30;80.20;;;;;;4202002;28;20076;-46
2023/08/27 06:01:36;;;;;;;6.03;4.13;;;20.30;80.30;;;;;;4200672;28;20047;-46
2023/08/27 06:04:17;;;;;;;4.55;4.03;;;20.30;80.40;;;;;;4201233;28;20137;-50
2023/08/27 06:06:58;;;;;;;4.53;4.15;;;20.30;80.80;;;;;;4202581;28;20047;-49
2023/08/27 06:09:39;;;;;;;6.72;4.25;;;20.30;81.10;;;;;;4191217;28;20042;-49
2023/08/27 06:12:21;;;;;;;4.35;4.03;;;20.30;81.50;;;;;;4202878;28;20410;-48
2023/08/27 06:15:04;;;;;;;4.65;4.30;;;20.30;82.40;;;;;;4198821;28;20137;-49
2023/08/27 06:17:45;;;;;;;5.78;4.93;;;20.30;83.20;;;;;;4202605;28;20054;-51
2023/08/27 06:20:26;;;;;;;5.28;4.15;;;20.30;83.60;;;;;;4202710;28;20116;-49
2023/08/27 06:23:07;;;;;;;3.92;3.72;;;20.30;83.70;;;;;;4203938;28;20108;-49
2023/08/27 06:25:49;;;;;;;4.97;4.18;;;20.30;83.50;;;;;;4202605;28;20051;-49
2023/08/27 06:28:32;;;;;;;4.53;4.20;;;20.30;83.00;;;;;;4202370;28;20078;-46
2023/08/27 06:31:12;;;;;;;3.35;3.25;;;20.30;82.40;;;;;;4202674;28;20055;-48
2023/08/27 06:33:56;;;;;;;4.80;4.40;;;20.30;81.80;;;;;;4202658;28;20067;-51
2023/08/27 06:36:37;;;;;;;5.45;4.63;;;20.30;81.60;;;;;;4203823;28;20087;-49
2023/08/27 06:39:17;;;;;;;4.60;4.30;;;20.30;81.70;;;;;;4204165;28;20051;-48
2023/08/27 06:41:59;;;;;;;4.38;4.07;;;20.20;81.80;;;;;;4187562;28;20400;-46
2023/08/27 06:44:41;;;;;;;5.15;4.32;;;20.20;81.80;;;;;;4207872;28;20066;-46
2023/08/27 06:47:23;;;;;;;5.05;4.18;;;20.20;81.90;;;;;;4200451;28;20101;-46
2023/08/27 06:50:06;;;;;;;4.85;4.30;;;20.20;81.80;;;;;;4203465;28;20051;-51
2023/08/27 06:52:47;;;;;;;5.53;4.57;;;20.20;81.90;;;;;;4201617;28;20501;-49
2023/08/27 06:55:28;;;;;;;4.82;3.92;;;20.20;81.90;;;;;;4202649;28;20486;-40
2023/08/27 06:58:09;;;;;;;4.00;3.75;;;20.20;81.90;;;;;;4202691;28;20112;-40
2023/08/27 07:00:52;;;;;;;4.05;3.65;;;20.10;81.90;;;;;;4202945;28;20148;-40
2023/08/27 07:03:33;;;;;;;6.63;4.00;;;20.10;81.80;;;;;;4201699;28;20055;-49
2023/08/27 07:06:14;;;;;;;4.07;3.72;;;20.10;81.80;;;;;;4202444;28;20887;-52
2023/08/27 07:08:55;;;;;;;3.78;3.47;;;20.10;82.10;;;;;;4192682;28;20643;-46
2023/08/27 07:11:36;;;;;;;4.85;3.80;;;20.10;82.50;;;;;;4202579;28;20059;-46
2023/08/27 07:14:17;;;;;;;4.38;3.90;;;20.20;82.90;;;;;;4202270;28;20055;-40
2023/08/27 07:17:00;;;;;;;4.20;3.80;;;20.20;83.00;;;;;;4202387;28;20186;-46
2023/08/27 07:19:41;;;;;;;3.97;3.67;;;20.20;82.80;;;;;;4202902;28;20051;-46
2023/08/27 07:22:23;;;;;;;4.50;3.53;;;20.20;82.60;;;;;;4202457;28;20055;-48
2023/08/27 07:25:05;;;;;;;4.47;3.72;;;20.20;82.50;;;;;;4202387;28;20047;-46
2023/08/27 07:27:46;;;;;;;3.90;3.47;;;20.20;82.50;;;;;;4201382;28;20624;-46
2023/08/27 07:30:27;;;;;;;3.88;3.58;;;20.20;82.70;;;;;;4201858;28;20128;-49
2023/08/27 07:33:11;;;;;;;3.42;3.13;;;20.20;82.70;;;;;;4203683;28;20055;-46
2023/08/27 07:35:52;;;;;;;3.55;3.25;;;20.10;82.70;;;;;;4205740;28;20125;-46
2023/08/27 07:38:32;;;;;;;4.57;3.17;;;20.10;82.80;;;;;;4205730;28;20055;-49
2023/08/27 07:41:15;;;;;;;3.80;2.85;;;20.10;82.90;;;;;;4205216;28;20061;-46
2023/08/27 07:43:56;;;;;;;6.43;2.78;;;20.10;83.00;;;;;;4199451;28;20188;-47
2023/08/27 07:46:37;;;;;;;;;;;20.10;83.10;;;;;;4205697;28;20529;-48
2023/08/27 07:49:19;;;;;;;4.70;3.30;;;20.10;83.10;;;;;;4204994;28;19927;-41
2023/08/27 07:52:01;;;;;;;3.20;2.90;;;20.10;83.20;;;;;;4205405;28;20120;-40
2023/08/27 07:54:43;;;;;;;3.65;3.33;;;20.10;83.20;;;;;;4206346;28;20054;-41
2023/08/27 07:57:25;;;;;;;2.50;2.28;;;20.10;83.10;;;;;;4199871;28;20375;-41
2023/08/27 08:00:07;;;;;;;3.45;2.75;;;20.10;83.00;;;;;;4205326;28;20592;-40
2023/08/27 08:02:54;;;;;;;2.60;2.40;;;20.10;83.00;;;;;;4206045;28;20059;-40
2023/08/27 08:05:37;;;;;;;2.45;2.25;;;20.10;83.00;;;;;;4204722;28;20067;-40
2023/08/27 08:08:18;;;;;;;3.38;2.40;;;20.10;83.10;;;;;;4206302;28;20237;-39
2023/08/27 08:10:59;;;;;;;2.40;2.10;;;20.10;83.10;;;;;;4206214;28;20051;-40
2023/08/27 08:13:41;;;;;;;4.57;2.45;;;20.10;83.10;;;;;;4204885;28;20154;-40
2023/08/27 08:16:23;;;;;;;2.17;1.98;;;20.10;83.00;;;;;;4206013;28;20407;-40
2023/08/27 08:19:04;;;;;;;6.10;1.95;;;20.10;82.90;;;;;;4204828;28;20073;-40
2023/08/27 08:21:46;;;;;;;2.13;1.80;;;20.10;83.00;;;;;;4206217;28;20063;-40
2023/08/27 08:24:27;;;;;;;1.88;1.77;;;20.20;83.10;;;;;;4205369;28;20109;-40
2023/08/27 08:27:08;;;;;;;1.90;1.70;;;20.20;83.40;;;;;;4206046;28;20055;-40
2023/08/27 08:29:51;;;;;;;1.50;1.40;;;20.20;83.40;;;;;;4204634;28;20051;-40
2023/08/27 08:32:32;;;;;;;1.70;1.52;;;20.30;83.60;;;;;;4204094;28;20059;-40
2023/08/27 08:35:13;;;;;;;2.65;1.38;;;20.30;83.70;;;;;;4205187;28;20391;-39
2023/08/27 08:37:55;;;;;;;1.50;1.40;;;20.40;84.40;;;;;;4205674;28;20047;-40
2023/08/27 08:41:00;;;;;;;2.08;1.00;;;20.40;83.30;;;;;;4205881;28;20124;-40
2023/08/27 08:43:44;;;;;;;3.13;1.30;;;20.40;83.50;;;;;;4205047;28;20079;-52
2023/08/27 08:46:31;;;;;;;2.20;1.58;;;20.50;82.50;;;;;;4198265;28;20411;-47
2023/08/27 08:49:16;;;;;;;2.35;1.50;;;20.50;82.50;;;;;;4188418;28;20113;-46
2023/08/27 08:52:05;;;;;;;2.75;1.50;;;20.50;82.40;;;;;;4187805;28;20075;-48
2023/08/27 08:54:52;;;;;;;1.48;1.38;;;20.60;82.60;;;;;;4188403;28;20059;-46
2023/08/27 08:57:39;;;;;;;1.33;1.25;;;20.60;83.60;;;;;;4189634;28;20068;-46
2023/08/27 09:00:20;;;;;;;1.65;1.55;;;20.70;82.70;;;;;;4205049;28;20058;-46
2023/08/27 09:03:03;;;;;;;1.80;1.60;;;20.70;82.40;;;;;;4203474;28;20082;-50
2023/08/27 09:05:46;;;;;;;3.15;1.80;;;20.70;82.00;;;;;;4205381;28;20162;-40
2023/08/27 09:08:31;;;;;;;1.45;1.35;;;20.70;82.00;;;;;;4203844;28;20053;-40
2023/08/27 09:11:15;;;;;;;1.38;1.30;;;20.80;82.30;;;;;;4205576;28;20062;-39
2023/08/27 09:14:02;;;;;;;1.30;1.17;;;20.80;82.10;;;;;;4203321;28;20042;-40
2023/08/27 09:16:43;;;;;;;1.50;1.40;;;20.90;82.20;;;;;;4204890;28;20060;-39
2023/08/27 09:19:24;;;;;;;2.63;1.60;;;20.90;82.20;;;;;;4204327;28;20055;-40
2023/08/27 09:22:05;;;;;;;1.92;1.48;;;20.90;81.50;;;;;;4205132;28;20051;-40
2023/08/27 09:24:47;;;;;;;1.65;1.60;;;20.90;81.10;;;;;;4204835;28;20161;-39
2023/08/27 09:27:30;;;;;;;2.17;1.73;;;21.00;81.10;;;;;;4203892;28;20490;-46
2023/08/27 09:30:12;;;;;;;1.77;1.60;;;20.90;81.30;;;;;;4205212;28;20058;-48
2023/08/27 09:32:53;;;;;;;2.40;2.00;;;20.90;81.10;;;;;;4204242;28;20051;-47
2023/08/27 09:35:38;;;;;;;1.95;1.70;;;21.00;80.90;;;;;;4205257;28;20093;-52
2023/08/27 09:38:19;;;;;;;1.90;1.80;;;21.00;80.70;;;;;;4203562;28;20410;-39
2023/08/27 09:41:15;;;;;;;1.70;1.60;;;21.00;80.60;;;;;;4204823;28;20128;-39
2023/08/27 09:43:57;;;;;;;1.80;1.70;;;21.00;80.10;;;;;;4203548;28;20504;-40
2023/08/27 09:46:40;;;;;;;1.67;1.58;;;21.00;79.90;;;;;;4203534;28;20047;-40
2023/08/27 09:49:24;;;;;;;2.47;2.00;;;21.00;79.40;;;;;;4204231;28;20511;-39
2023/08/27 09:52:07;;;;;;;1.98;1.77;;;21.00;79.00;;;;;;4204390;28;20154;-40
2023/08/27 09:54:48;;;;;;;2.83;1.50;;;21.00;78.70;;;;;;4203468;28;20051;-39
2023/08/27 09:57:31;;;;;;;1.58;1.48;;;21.10;78.80;;;;;;4203814;28;20070;-39
2023/08/27 10:00:15;;;;;;;1.70;1.60;;;21.10;79.00;;;;;;4203827;28;20528;-39
2023/08/27 10:02:57;;;;;;;2.25;1.77;;;21.10;79.30;;;;;;4204359;28;20122;-39
2023/08/27 10:05:38;;;;;;;1.50;1.50;;;21.10;79.50;;;;;;4204316;28;20512;-39
2023/08/27 10:08:19;;;;;;;4.72;1.92;;;21.20;79.10;;;;;;4203963;28;20544;-40
2023/08/27 10:11:10;;;;;;;4.30;1.67;;;21.20;78.70;;;;;;4203748;28;20066;-40
2023/08/27 10:13:52;;;;;;;2.50;1.55;;;21.20;77.90;;;;;;4203675;28;20494;-39
2023/08/27 10:16:36;;;;;;;2.25;1.60;;;21.30;78.00;;;;;;4203484;28;20181;-40
2023/08/27 10:19:17;;;;;;;1.52;1.23;;;21.30;77.30;;;;;;4202461;28;20058;-40
2023/08/27 10:21:58;;;;;;;1.42;1.33;;;21.30;76.50;;;;;;4204252;28;20387;-40
2023/08/27 10:24:40;;;;;;;1.60;1.50;;;21.40;76.30;;;;;;4203463;28;20185;-39
2023/08/27 10:27:22;;;;;;;1.67;1.42;;;21.40;75.60;;;;;;4204121;28;20058;-39
2023/08/27 10:30:07;;;;;;;1.13;1.00;;;21.40;75.50;;;;;;4204072;28;20059;-39
2023/08/27 10:32:49;;;;;;;1.90;1.30;;;21.40;75.10;;;;;;4202453;28;20055;-39
2023/08/27 10:35:35;;;;;;;1.95;1.38;;;21.40;74.80;;;;;;4204453;28;20054;-39
2023/08/27 10:38:17;;;;;;;1.08;1.08;;;21.40;74.60;;;;;;4204088;28;20059;-40
2023/08/27 10:40:59;;;;;;;4.45;1.30;;;21.40;74.20;;;;;;4204037;28;20054;-39
2023/08/27 10:43:39;;;;;;;1.55;1.40;;;21.50;74.20;;;;;;4203913;28;20065;-39
2023/08/27 10:46:24;;;;;;;1.40;1.30;;;21.50;74.20;;;;;;4203560;28;20051;-39
2023/08/27 10:49:17;;;;;;;1.70;1.30;;;21.50;74.30;;;;;;4204198;28;20415;-40
2023/08/27 10:51:58;;;;;;;0.93;0.93;;;21.50;73.70;;;;;;4203329;28;20047;-39
2023/08/27 10:54:40;;;;;;;1.00;1.00;;;21.60;73.90;;;;;;4202040;28;20047;-39
2023/08/27 10:57:22;;;;;;;1.20;1.20;;;21.60;74.00;;;;;;4204412;28;20051;-40
2023/08/27 11:00:10;;;;;;;1.30;1.20;;;21.60;74.10;;;;;;4203240;28;20786;-39
2023/08/27 11:02:59;;;;;;;1.02;1.00;;;21.70;73.40;;;;;;4203921;28;20100;-39
2023/08/27 11:05:41;;;;;;;1.52;1.20;;;21.70;72.70;;;;;;4187374;28;20423;-39
2023/08/27 11:08:35;;;;;;;1.30;1.20;;;21.70;72.60;;;;;;4186578;28;20179;-39
2023/08/27 11:11:17;;;;;;;1.70;1.60;;;21.70;72.10;;;;;;4189189;28;20185;-39
2023/08/27 11:14:07;;;;;;;1.40;1.30;;;21.70;72.30;;;;;;4190290;28;20082;-50
2023/08/27 11:17:03;;;;;;;1.67;1.58;;;21.70;72.50;;;;;;4196428;28;20055;-46
2023/08/27 11:19:46;;;;;;;1.20;1.20;;;21.70;73.10;;;;;;4205316;28;20047;-50
2023/08/27 11:22:29;;;;;;;2.25;1.70;;;21.70;72.80;;;;;;4207233;28;20093;-46
2023/08/27 11:25:11;;;;;;;1.70;1.60;;;21.60;72.70;;;;;;4205995;28;20132;-47
2023/08/27 11:27:52;;;;;;;1.55;1.45;;;21.60;72.80;;;;;;4207153;28;20039;-47
2023/08/27 11:30:33;;;;;;;2.42;1.70;;;21.60;73.10;;;;;;4207058;28;20046;-47
2023/08/27 11:33:21;;;;;;;1.95;1.75;;;21.60;73.60;;;;;;4206351;28;20112;-46
2023/08/27 11:36:02;;;;;;;2.42;1.85;;;21.60;74.00;;;;;;4204227;28;20219;-45
2023/08/27 11:38:44;;;;;;;1.90;1.80;;;21.60;74.40;;;;;;4206059;28;20092;-49
2023/08/27 11:41:25;;;;;;;2.03;1.70;;;21.60;74.50;;;;;;4206335;28;20520;-48
2023/08/27 11:44:07;;;;;;;2.53;1.83;;;21.60;74.80;;;;;;4205327;28;20054;-48
2023/08/27 11:46:51;;;;;;;2.05;1.83;;;21.60;74.80;;;;;;4204170;28;20050;-48
2023/08/27 11:49:35;;;;;;;2.80;1.67;;;21.50;74.90;;;;;;4204909;28;20651;-48
2023/08/27 11:52:16;;;;;;;1.75;1.65;;;21.50;75.10;;;;;;4201680;28;20054;-46
2023/08/27 11:55:00;;;;;;;1.90;1.80;;;21.60;75.30;;;;;;4203255;28;20153;-52
2023/08/27 11:57:42;;;;;;;1.00;1.00;;;21.50;75.20;;;;;;4189190;28;20063;-47
2023/08/27 12:00:25;;;;;;;2.08;1.38;;;21.60;75.20;;;;;;4188714;28;20178;-46
2023/08/27 12:03:06;;;;;;;2.20;1.58;;;21.60;74.50;;;;;;4179962;28;20075;-47
2023/08/27 12:05:49;;;;;;;2.00;1.90;;;21.60;74.20;;;;;;4206115;28;20503;-49
2023/08/27 12:08:35;;;;;;;2.50;1.50;;;21.70;74.10;;;;;;4206595;28;20055;-49
2023/08/27 12:11:18;;;;;;;3.28;2.15;;;21.70;73.40;;;;;;4206395;28;20104;-47
2023/08/27 12:14:00;;;;;;;5.13;2.47;;;21.70;73.80;;;;;;4205754;28;20047;-47
2023/08/27 12:16:45;;;;;;;2.50;2.30;;;21.70;74.30;;;;;;4205389;28;20532;-50
2023/08/27 12:19:26;;;;;;;2.47;1.85;;;21.70;74.60;;;;;;4205929;28;20125;-46
2023/08/27 12:22:07;;;;;;;3.80;1.90;;;21.70;74.60;;;;;;4205651;28;20074;-51
2023/08/27 12:24:48;;;;;;;5.85;2.38;;;21.70;74.70;;;;;;4206019;28;20089;-49
2023/08/27 12:27:31;;;;;;;2.90;1.52;;;21.70;75.10;;;;;;4205198;28;20055;-49
2023/08/27 12:30:13;;;;;;;5.25;1.50;;;21.70;75.60;;;;;;4205321;28;20063;-50
2023/08/27 12:32:55;;;;;;;3.80;1.95;;;21.70;74.50;;;;;;4205564;28;20059;-48
2023/08/27 12:35:37;;;;;;;10.13;2.45;;;21.70;74.30;;;;;;4205717;28;20047;-47
2023/08/27 12:38:17;;;;;;;4.50;1.80;;;21.60;74.30;;;;;;4205238;28;20117;-47
2023/08/27 12:40:59;;;;;;;3.92;2.38;;;21.60;74.70;;;;;;4205999;28;20066;-48
2023/08/27 12:43:41;;;;;;;2.85;2.22;;;21.50;75.20;;;;;;4205290;28;20108;-48
2023/08/27 12:46:24;;;;;;;5.05;2.20;;;21.50;75.40;;;;;;4203677;28;20071;-47
2023/08/27 12:49:05;;;;;;;3.25;1.40;;;21.40;75.70;;;;;;4204876;28;20510;-46
2023/08/27 12:51:47;;;;;;;3.83;1.38;;;21.40;75.90;;;;;;4205768;28;20062;-48
2023/08/27 12:54:29;;;;;;;1.67;1.27;;;21.40;76.00;;;;;;4205337;28;20137;-50
2023/08/27 12:57:11;;;;;;;3.25;1.27;;;21.40;76.10;;;;;;4205228;28;20128;-51
2023/08/27 12:59:53;;;;;;;1.15;1.05;;;21.30;75.80;;;;;;4205262;28;20047;-50
2023/08/27 13:02:34;;;;;;;2.33;1.10;;;21.30;76.30;;;;;;4204919;28;20801;-48
2023/08/27 13:05:15;;;;;;;2.90;1.25;;;21.30;76.60;;;;;;4205150;28;20419;-49
2023/08/27 13:08:00;;;;;;;1.20;1.10;;;21.30;77.00;;;;;;4205763;28;20502;-50
2023/08/27 13:10:41;;;;;;;1.98;1.33;;;21.30;77.20;;;;;;4204837;28;20778;-47
2023/08/27 13:13:22;;;;;;;1.00;1.00;;;21.30;77.70;;;;;;4205208;28;20170;-46
2023/08/27 13:16:07;;;;;;;1.50;1.40;;;21.30;78.10;;;;;;4205603;28;20625;-48
2023/08/27 13:18:48;;;;;;;3.47;1.40;;;21.30;78.40;;;;;;4191518;28;20817;-48
2023/08/27 13:21:29;;;;;;;;;;;21.30;78.50;;;;;;4204860;28;20104;-49
2023/08/27 13:24:10;;;;;;;1.80;1.63;;;21.30;78.50;;;;;;4204792;28;19946;-50
2023/08/27 13:26:51;;;;;;;1.88;1.50;;;21.30;78.70;;;;;;4204045;28;20181;-50
2023/08/27 13:29:32;;;;;;;2.75;1.35;;;21.30;79.00;;;;;;4186828;28;20190;-51
2023/08/27 13:32:15;;;;;;;1.48;1.33;;;21.30;79.20;;;;;;4186912;28;20055;-48
2023/08/27 13:34:56;;;;;;;1.30;0.93;;;21.40;79.60;;;;;;4186981;28;20052;-51
2023/08/27 13:37:36;;;;;;;1.60;1.00;;;21.40;79.30;;;;;;4192786;28;20178;-46
2023/08/27 13:40:18;;;;;;;1.10;1.00;;;21.30;78.90;;;;;;4202720;28;20181;-50
2023/08/27 13:42:59;;;;;;;1.90;1.00;;;21.40;79.20;;;;;;4193590;28;20489;-51
2023/08/27 13:45:40;;;;;;;1.13;1.13;;;21.40;79.30;;;;;;4204169;28;20113;-39
2023/08/27 13:48:22;;;;;;;1.10;0.90;;;21.40;78.90;;;;;;4188151;28;20093;-38
2023/08/27 13:51:03;;;;;;;0.93;0.80;;;21.40;78.50;;;;;;4197726;28;20047;-39
2023/08/27 13:53:44;;;;;;;1.20;1.10;;;21.40;78.60;;;;;;4204324;28;20059;-39
2023/08/27 13:56:25;;;;;;;4.35;1.10;;;21.40;78.50;;;;;;4204005;28;20066;-39
2023/08/27 13:59:06;;;;;;;1.02;0.95;;;21.40;78.20;;;;;;4193216;28;20055;-39
2023/08/27 14:01:48;;;;;;;1.00;1.00;;;21.40;78.30;;;;;;4203870;28;20406;-39
2023/08/27 14:04:30;;;;;;;0.88;0.88;;;21.40;78.50;;;;;;4202847;28;20418;-40